createdAt,value
2018-12-13T00:01:47.229Z,98228.33
2018-12-13T00:03:54.266Z,98239.02
2018-12-13T00:06:00.976Z,98238.25
2018-12-13T00:08:07.781Z,98238.81
2018-12-13T00:10:14.703Z,98243.54
2018-12-13T00:12:21.666Z,98243.62
2018-12-13T00:14:28.427Z,98248.34
2018-12-13T00:16:35.599Z,98244.45
2018-12-13T00:18:42.336Z,98258.78
2018-12-13T00:20:49.022Z,98251.19
2018-12-13T00:22:56.104Z,98258.08
2018-12-13T00:25:02.970Z,98258.30
2018-12-13T00:27:09.782Z,98250.66
2018-12-13T00:29:17.102Z,98262.61
2018-12-13T00:31:24.130Z,98263.96
2018-12-13T00:33:30.822Z,98265.27
2018-12-13T00:35:37.841Z,98271.19
2018-12-13T00:37:44.746Z,98274.14
2018-12-13T00:39:51.520Z,98272.45
2018-12-13T00:41:59.203Z,98271.68
2018-12-13T00:44:06.993Z,98276.81
2018-12-13T00:46:13.815Z,98284.41
2018-12-13T00:48:20.712Z,98277.87
2018-12-13T00:50:27.706Z,98285.56
2018-12-13T00:52:34.421Z,98282.88
2018-12-13T00:54:41.370Z,98289.80
2018-12-13T00:56:48.217Z,98301.37
2018-12-13T00:58:55.160Z,98306.05
2018-12-13T01:01:02.889Z,98310.13
2018-12-13T01:03:09.629Z,98310.29
2018-12-13T01:05:16.574Z,98321.53
2018-12-13T01:07:23.511Z,98319.81
2018-12-13T01:09:30.632Z,98317.61
2018-12-13T01:11:37.430Z,98316.80
2018-12-13T01:13:44.613Z,98325.26
2018-12-13T01:15:51.340Z,98317.30
2018-12-13T01:17:58.659Z,98314.21
2018-12-13T01:20:06.324Z,98310.56
2018-12-13T01:22:13.279Z,98313.31
2018-12-13T01:24:19.976Z,98321.78
2018-12-13T01:26:26.950Z,98318.45
2018-12-13T01:28:34.652Z,98323.30
2018-12-13T01:30:41.513Z,98327.23
2018-12-13T01:32:48.350Z,98327.59
2018-12-13T01:34:55.177Z,98333.38
2018-12-13T01:37:01.863Z,98325.37
2018-12-13T01:39:09.254Z,98334.42
2018-12-13T01:41:16.027Z,98333.77
2018-12-13T01:43:23.147Z,98331.78
2018-12-13T01:45:30.216Z,98337.78
2018-12-13T01:47:37.121Z,98344.02
2018-12-13T01:49:43.665Z,98347.31
2018-12-13T01:51:50.591Z,98343.44
2018-12-13T01:53:57.661Z,98346.79
2018-12-13T01:56:04.935Z,98345.34
2018-12-13T01:58:12.106Z,98355.11
2018-12-13T02:00:19.496Z,98350.55
2018-12-13T02:02:26.397Z,98349.83
2018-12-13T02:04:33.172Z,98358.53
2018-12-13T02:06:40.213Z,98353.17
2018-12-13T02:08:47.132Z,98361.38
2018-12-13T02:10:54.026Z,98353.41
2018-12-13T02:13:00.754Z,98350.64
2018-12-13T02:15:08.160Z,98359.79
2018-12-13T02:17:14.868Z,98356.75
2018-12-13T02:19:21.767Z,98368.77
2018-12-13T02:21:28.513Z,98377.08
2018-12-13T02:23:35.309Z,98377.81
2018-12-13T02:25:42.558Z,98381.81
2018-12-13T02:27:49.282Z,98380.99
2018-12-13T02:29:56.242Z,98374.52
2018-12-13T02:32:03.024Z,98376.44
2018-12-13T02:34:09.997Z,98380.22
2018-12-13T02:36:17.317Z,98376.61
2018-12-13T02:38:24.137Z,98381.14
2018-12-13T02:40:30.897Z,98379.97
2018-12-13T02:42:37.736Z,98385.73
2018-12-13T02:44:44.518Z,98395.09
2018-12-13T02:46:51.300Z,98393.30
2018-12-13T02:49:07.847Z,98389.73
2018-12-13T02:51:14.848Z,98387.85
2018-12-13T02:53:21.589Z,98391.76
2018-12-13T02:55:28.296Z,98393.64
2018-12-13T02:57:36.211Z,98396.80
2018-12-13T02:59:42.977Z,98399.04
2018-12-13T03:01:49.960Z,98408.16
2018-12-13T03:03:56.881Z,98406.94
2018-12-13T03:06:03.532Z,98411.52
2018-12-13T03:08:10.425Z,98410.09
2018-12-13T03:10:17.385Z,98421.39
2018-12-13T03:12:24.222Z,98421.28
2018-12-13T03:14:30.778Z,98422.10
2018-12-13T03:16:37.542Z,98426.81
2018-12-13T03:18:44.540Z,98420.69
2018-12-13T03:20:51.359Z,98413.92
2018-12-13T03:22:58.242Z,98422.58
2018-12-13T03:25:05.352Z,98422.80
2018-12-13T03:27:12.454Z,98432.50
2018-12-13T03:29:19.249Z,98433.47
2018-12-13T03:31:26.293Z,98436.70
2018-12-13T03:33:33.382Z,98433.76
2018-12-13T03:35:40.184Z,98435.75
2018-12-13T03:37:46.941Z,98435.29
2018-12-13T03:39:53.883Z,98436.94
2018-12-13T03:42:00.738Z,98435.82
2018-12-13T03:44:08.007Z,98445.65
2018-12-13T03:46:15.196Z,98461.44
2018-12-13T03:48:21.935Z,98471.36
2018-12-13T03:50:28.780Z,98466.08
2018-12-13T03:52:35.693Z,98462.55
2018-12-13T03:54:42.732Z,98472.53
2018-12-13T03:56:49.534Z,98462.62
2018-12-13T03:58:56.580Z,98460.54
2018-12-13T04:01:03.469Z,98470.11
2018-12-13T04:03:10.686Z,98455.48
2018-12-13T04:05:17.557Z,98457.95
2018-12-13T04:07:27.723Z,98453.48
2018-12-13T04:09:33.342Z,98461.05
2018-12-13T04:11:40.036Z,98465.31
2018-12-13T04:13:46.726Z,98466.31
2018-12-13T04:15:53.783Z,98476.60
2018-12-13T04:18:01.248Z,98462.92
2018-12-13T04:20:08.185Z,98471.49
2018-12-13T04:22:14.848Z,98471.19
2018-12-13T04:24:21.660Z,98474.49
2018-12-13T04:26:28.525Z,98476.77
2018-12-13T04:28:35.397Z,98477.27
2018-12-13T04:30:42.413Z,98473.02
2018-12-13T04:32:49.181Z,98465.48
2018-12-13T04:34:55.887Z,98470.67
2018-12-13T04:37:02.580Z,98454.27
2018-12-13T04:39:10.352Z,98455.33
2018-12-13T04:41:17.209Z,98457.84
2018-12-13T04:43:24.275Z,98457.73
2018-12-13T04:45:34.038Z,98462.25
2018-12-13T04:47:40.831Z,98451.59
2018-12-13T04:49:47.813Z,98457.20
2018-12-13T04:51:54.893Z,98447.14
2018-12-13T04:54:01.759Z,98453.00
2018-12-13T04:56:08.679Z,98468.55
2018-12-13T04:58:15.548Z,98469.72
2018-12-13T05:00:22.400Z,98468.25
2018-12-13T05:02:29.258Z,98461.36
2018-12-13T05:04:36.585Z,98467.34
2018-12-13T05:06:43.253Z,98468.78
2018-12-13T05:08:49.873Z,98482.77
2018-12-13T05:10:57.389Z,98474.38
2018-12-13T05:13:04.220Z,98480.67
2018-12-13T05:15:11.161Z,98493.97
2018-12-13T05:17:18.118Z,98492.39
2018-12-13T05:19:24.885Z,98507.36
2018-12-13T05:21:31.780Z,98507.00
2018-12-13T05:23:38.586Z,98511.93
2018-12-13T05:25:45.529Z,98506.97
2018-12-13T05:27:52.442Z,98505.10
2018-12-13T05:29:59.288Z,98494.22
2018-12-13T05:32:07.110Z,98489.34
2018-12-13T05:34:13.771Z,98487.90
2018-12-13T05:36:20.560Z,98488.56
2018-12-13T05:38:28.666Z,98491.93
2018-12-13T05:40:35.722Z,98496.52
2018-12-13T05:42:42.708Z,98497.66
2018-12-13T05:44:49.515Z,98500.59
2018-12-13T05:46:56.693Z,98486.53
2018-12-13T05:49:03.533Z,98493.59
2018-12-13T05:51:10.535Z,98501.25
2018-12-13T05:53:17.283Z,98503.81
2018-12-13T05:55:24.212Z,98500.18
2018-12-13T05:57:31.061Z,98501.83
2018-12-13T05:59:37.731Z,98502.22
2018-12-13T06:01:44.973Z,98494.33
2018-12-13T06:03:51.748Z,98495.98
2018-12-13T06:05:58.883Z,98507.83
2018-12-13T06:08:05.982Z,98507.20
2018-12-13T06:10:12.834Z,98502.77
2018-12-13T06:12:19.530Z,98518.23
2018-12-13T06:14:27.314Z,98532.30
2018-12-13T06:16:34.267Z,98527.90
2018-12-13T06:18:41.186Z,98523.93
2018-12-13T06:20:48.007Z,98525.37
2018-12-13T06:22:54.893Z,98533.89
2018-12-13T06:25:01.674Z,98540.20
2018-12-13T06:27:08.617Z,98546.47
2018-12-13T06:29:15.405Z,98539.94
2018-12-13T06:31:22.575Z,98545.34
2018-12-13T06:33:29.607Z,98545.24
2018-12-13T06:35:36.454Z,98537.28
2018-12-13T06:37:43.510Z,98536.52
2018-12-13T06:39:50.262Z,98543.36
2018-12-13T06:41:56.971Z,98541.05
2018-12-13T06:44:03.949Z,98544.29
2018-12-13T06:46:10.645Z,98540.77
2018-12-13T06:48:17.521Z,98545.15
2018-12-13T06:50:24.220Z,98543.27
2018-12-13T06:52:31.058Z,98543.86
2018-12-13T06:54:38.034Z,98547.83
2018-12-13T06:56:44.802Z,98548.06
2018-12-13T06:58:51.681Z,98553.33
2018-12-13T07:00:58.646Z,98552.17
2018-12-13T07:03:05.615Z,98558.27
2018-12-13T07:05:12.860Z,98555.08
2018-12-13T07:07:20.967Z,98560.89
2018-12-13T07:09:28.475Z,98563.22
2018-12-13T07:11:36.067Z,98557.00
2018-12-13T07:13:42.925Z,98552.19
2018-12-13T07:15:49.650Z,98564.24
2018-12-13T07:17:56.537Z,98564.84
2018-12-13T07:20:03.906Z,98569.08
2018-12-13T07:22:10.706Z,98566.38
2018-12-13T07:24:17.514Z,98554.89
2018-12-13T07:26:24.474Z,98560.23
2018-12-13T07:28:31.850Z,98563.95
2018-12-13T07:30:38.869Z,98561.94
2018-12-13T07:32:45.737Z,98563.75
2018-12-13T07:34:52.782Z,98567.42
2018-12-13T07:36:59.425Z,98566.23
2018-12-13T07:39:08.390Z,98569.70
2018-12-13T07:41:15.695Z,98574.42
2018-12-13T07:43:22.620Z,98578.88
2018-12-13T07:45:29.321Z,98585.97
2018-12-13T07:47:36.012Z,98596.70
2018-12-13T07:49:43.105Z,98593.60
2018-12-13T07:51:49.769Z,98602.70
2018-12-13T07:53:56.434Z,98607.73
2018-12-13T07:56:03.372Z,98610.79
2018-12-13T07:58:10.807Z,98619.18
2018-12-13T08:00:17.813Z,98617.98
2018-12-13T08:02:24.498Z,98627.86
2018-12-13T08:04:31.122Z,98628.09
2018-12-13T08:06:37.829Z,98630.86
2018-12-13T08:08:44.627Z,98641.38
2018-12-13T08:10:51.394Z,98632.92
2018-12-13T08:12:58.018Z,98630.70
2018-12-13T08:15:05.092Z,98627.27
2018-12-13T08:17:11.899Z,98630.66
2018-12-13T08:19:18.605Z,98625.90
2018-12-13T08:21:25.545Z,98632.84
2018-12-13T08:23:32.396Z,98628.86
2018-12-13T08:25:39.074Z,98625.50
2018-12-13T08:27:45.869Z,98628.63
2018-12-13T08:29:52.603Z,98636.92
2018-12-13T08:31:59.447Z,98639.02
2018-12-13T08:34:06.413Z,98635.02
2018-12-13T08:36:13.390Z,98638.27
2018-12-13T08:38:20.208Z,98634.67
2018-12-13T08:40:27.237Z,98631.35
2018-12-13T08:42:34.325Z,98642.59
2018-12-13T08:44:40.955Z,98633.51
2018-12-13T08:46:47.817Z,98634.08
2018-12-13T08:48:54.737Z,98636.76
2018-12-13T08:51:01.529Z,98638.26
2018-12-13T08:53:08.472Z,98644.27
2018-12-13T08:55:15.342Z,98639.02
2018-12-13T08:57:22.052Z,98646.55
2018-12-13T08:59:29.477Z,98649.21
2018-12-13T09:01:36.418Z,98642.24
2018-12-13T09:03:43.295Z,98649.63
2018-12-13T09:05:50.390Z,98662.67
2018-12-13T09:07:57.373Z,98664.20
2018-12-13T09:10:04.486Z,98659.03
2018-12-13T09:12:11.394Z,98668.88
2018-12-13T09:14:18.259Z,98669.03
2018-12-13T09:16:31.278Z,98667.51
2018-12-13T09:18:34.160Z,98669.67
2018-12-13T09:20:42.000Z,98670.60
2018-12-13T09:22:48.850Z,98675.01
2018-12-13T09:24:55.865Z,98675.69
2018-12-13T09:27:02.882Z,98671.45
2018-12-13T09:29:09.781Z,98679.41
2018-12-13T09:31:16.639Z,98666.56
2018-12-13T09:33:23.564Z,98674.94
2018-12-13T09:35:30.380Z,98676.77
2018-12-13T09:37:37.354Z,98687.19
2018-12-13T09:39:44.166Z,98687.20
2018-12-13T09:41:51.154Z,98679.53
2018-12-13T09:43:58.000Z,98692.05
2018-12-13T09:46:05.222Z,98688.30
2018-12-13T09:48:12.050Z,98679.95
2018-12-13T09:50:18.890Z,98680.91
2018-12-13T09:52:25.788Z,98685.44
2018-12-13T09:54:32.898Z,98679.78
2018-12-13T09:56:39.844Z,98680.38
2018-12-13T09:58:47.018Z,98685.58
2018-12-13T10:00:53.725Z,98685.09
2018-12-13T10:03:00.426Z,98696.36
2018-12-13T10:05:07.537Z,98697.12
2018-12-13T10:07:14.381Z,98700.89
2018-12-13T10:09:22.050Z,98701.02
2018-12-13T10:11:28.705Z,98716.80
2018-12-13T10:13:35.521Z,98712.55
2018-12-13T10:15:42.410Z,98711.13
2018-12-13T10:17:49.230Z,98707.41
2018-12-13T10:19:56.244Z,98712.97
2018-12-13T10:22:03.270Z,98707.59
2018-12-13T10:24:10.071Z,98710.67
2018-12-13T10:26:17.139Z,98700.98
2018-12-13T10:28:24.171Z,98706.50
2018-12-13T10:30:30.886Z,98718.14
2018-12-13T10:32:37.826Z,98728.50
2018-12-13T10:34:44.726Z,98724.44
2018-12-13T10:36:51.795Z,98725.25
2018-12-13T10:38:58.431Z,98720.14
2018-12-13T10:41:05.345Z,98728.00
2018-12-13T10:43:12.250Z,98724.94
2018-12-13T10:45:19.166Z,98722.93
2018-12-13T10:47:25.834Z,98734.55
2018-12-13T10:49:33.606Z,98741.24
2018-12-13T10:51:40.701Z,98745.95
2018-12-13T10:53:48.027Z,98753.73
2018-12-13T10:55:55.218Z,98747.41
2018-12-13T10:58:02.054Z,98744.26
2018-12-13T11:00:14.358Z,98747.93
2018-12-13T11:02:26.216Z,98752.95
2018-12-13T11:04:33.329Z,98745.57
2018-12-13T11:06:40.174Z,98744.16
2018-12-13T11:08:47.769Z,98750.05
2018-12-13T11:10:54.371Z,98758.27
2018-12-13T11:13:01.765Z,98751.03
2018-12-13T11:15:08.582Z,98749.84
2018-12-13T11:17:15.493Z,98747.20
2018-12-13T11:19:22.587Z,98749.54
2018-12-13T11:21:29.515Z,98759.53
2018-12-13T11:23:36.546Z,98755.34
2018-12-13T11:25:43.501Z,98768.96
2018-12-13T11:28:28.047Z,98765.25
2018-12-13T11:30:35.019Z,98763.50
2018-12-13T11:32:42.713Z,98761.36
2018-12-13T11:34:49.597Z,98758.66
2018-12-13T11:36:56.331Z,98759.70
2018-12-13T11:39:05.920Z,98758.92
2018-12-13T11:41:12.933Z,98761.28
2018-12-13T11:43:19.956Z,98768.88
2018-12-13T11:45:27.082Z,98767.96
2018-12-13T11:47:34.546Z,98761.65
2018-12-13T11:49:41.421Z,98767.11
2018-12-13T11:51:48.598Z,98769.81
2018-12-13T11:53:55.823Z,98778.45
2018-12-13T11:56:02.431Z,98789.34
2018-12-13T11:58:12.530Z,98800.31
2018-12-13T12:00:19.299Z,98796.75
2018-12-13T12:02:26.269Z,98805.20
2018-12-13T12:04:33.173Z,98823.08
2018-12-13T12:06:40.065Z,98825.43
2018-12-13T12:08:46.689Z,98828.47
2018-12-13T12:10:53.530Z,98836.66
2018-12-13T12:13:01.058Z,98835.89
2018-12-13T12:15:08.493Z,98838.73
2018-12-13T12:17:15.405Z,98834.08
2018-12-13T12:19:22.437Z,98831.00
2018-12-13T12:21:29.344Z,98830.96
2018-12-13T12:23:36.222Z,98823.70
2018-12-13T12:25:43.053Z,98819.37
2018-12-13T12:27:49.720Z,98822.71
2018-12-13T12:29:56.379Z,98832.67
2018-12-13T12:32:03.352Z,98830.41
2018-12-13T12:34:10.221Z,98832.83
2018-12-13T12:36:17.306Z,98824.23
2018-12-13T12:38:24.092Z,98819.41
2018-12-13T12:40:30.938Z,98818.16
2018-12-13T12:42:38.263Z,98817.11
2018-12-13T12:44:44.945Z,98816.19
2018-12-13T12:46:51.806Z,98813.72
2018-12-13T12:48:58.729Z,98812.42
2018-12-13T12:51:05.745Z,98818.14
2018-12-13T12:53:12.512Z,98821.31
2018-12-13T12:55:19.747Z,98822.59
2018-12-13T12:57:26.423Z,98839.53
2018-12-13T12:59:33.114Z,98846.73
2018-12-13T13:01:40.032Z,98846.27
2018-12-13T13:03:46.629Z,98861.84
2018-12-13T13:05:53.830Z,98861.55
2018-12-13T13:08:00.625Z,98857.05
2018-12-13T13:10:08.924Z,98864.88
2018-12-13T13:12:16.177Z,98875.20
2018-12-13T13:14:23.267Z,98873.21
2018-12-13T13:16:30.217Z,98861.30
2018-12-13T13:18:39.141Z,98867.41
2018-12-13T13:20:45.877Z,98860.25
2018-12-13T13:22:52.727Z,98879.75
2018-12-13T13:24:59.473Z,98879.17
2018-12-13T13:27:06.357Z,98881.00
2018-12-13T13:29:13.540Z,98885.10
2018-12-13T13:31:21.259Z,98872.83
2018-12-13T13:33:28.193Z,98872.37
2018-12-13T13:35:34.981Z,98886.31
2018-12-13T13:37:42.221Z,98892.70
2018-12-13T13:39:48.901Z,98885.03
2018-12-13T13:41:55.962Z,98883.98
2018-12-13T13:44:02.799Z,98874.55
2018-12-13T13:46:09.730Z,98885.23
2018-12-13T13:48:16.316Z,98884.30
2018-12-13T13:50:22.984Z,98886.92
2018-12-13T13:52:29.859Z,98887.67
2018-12-13T13:54:36.786Z,98893.08
2018-12-13T13:56:43.844Z,98885.21
2018-12-13T13:58:50.716Z,98891.84
2018-12-13T14:00:57.849Z,98892.75
2018-12-13T14:03:04.618Z,98882.01
2018-12-13T14:05:12.063Z,98904.50
2018-12-13T14:07:18.988Z,98896.50
2018-12-13T14:09:25.985Z,98907.36
2018-12-13T14:11:32.689Z,98918.67
2018-12-13T14:13:39.620Z,98924.33
2018-12-13T14:15:47.071Z,98919.53
2018-12-13T14:17:53.740Z,98916.38
2018-12-13T14:20:00.569Z,98922.16
2018-12-13T14:22:07.392Z,98915.02
2018-12-13T14:24:14.119Z,98922.84
2018-12-13T14:26:21.001Z,98926.74
2018-12-13T14:28:27.789Z,98929.70
2018-12-13T14:30:34.625Z,98934.73
2018-12-13T14:32:41.429Z,98933.86
2018-12-13T14:34:48.364Z,98934.25
2018-12-13T14:36:55.113Z,98941.14
2018-12-13T14:39:02.382Z,98942.09
2018-12-13T14:41:09.412Z,98929.92
2018-12-13T14:43:16.253Z,98937.74
2018-12-13T14:45:22.901Z,98935.74
2018-12-13T14:47:29.896Z,98932.79
2018-12-13T14:49:36.978Z,98942.52
2018-12-13T14:51:43.801Z,98950.52
2018-12-13T14:53:51.285Z,98955.59
2018-12-13T14:55:58.229Z,98961.25
2018-12-13T14:58:05.045Z,98956.66
2018-12-13T15:00:14.657Z,98953.55
2018-12-13T15:02:21.461Z,98947.39
2018-12-13T15:04:28.225Z,98937.13
2018-12-13T15:06:35.274Z,98933.42
2018-12-13T15:08:41.805Z,98939.58
2018-12-13T15:10:48.972Z,98938.08
2018-12-13T15:12:55.572Z,98930.17
2018-12-13T15:15:02.472Z,98928.88
2018-12-13T15:17:09.756Z,98924.02
2018-12-13T15:19:16.626Z,98920.94
2018-12-13T15:21:23.588Z,98917.67
2018-12-13T15:23:30.407Z,98922.27
2018-12-13T15:25:37.243Z,98916.83
2018-12-13T15:27:43.936Z,98914.04
2018-12-13T15:29:50.686Z,98912.18
2018-12-13T15:31:59.601Z,98918.95
2018-12-13T15:34:07.107Z,98922.52
2018-12-13T15:36:13.739Z,98919.09
2018-12-13T15:38:21.244Z,98921.12
2018-12-13T15:40:28.194Z,98921.22
2018-12-13T15:42:35.758Z,98917.61
2018-12-13T15:44:45.352Z,98926.11
2018-12-13T15:46:52.526Z,98924.33
2018-12-13T15:48:59.419Z,98923.27
2018-12-13T15:51:06.467Z,98918.27
2018-12-13T15:53:13.444Z,98916.69
2018-12-13T15:55:20.320Z,98902.96
2018-12-13T15:57:27.357Z,98904.02
2018-12-13T15:59:35.585Z,98896.64
2018-12-13T16:01:42.258Z,98887.38
2018-12-13T16:03:49.176Z,98877.29
2018-12-13T16:05:56.009Z,98873.13
2018-12-13T16:08:03.123Z,98777.15
2018-12-13T16:10:09.748Z,98864.39
2018-12-13T16:12:16.790Z,98862.56
2018-12-13T16:14:23.699Z,98877.80
2018-12-13T16:16:30.765Z,98869.25
2018-12-13T16:20:58.753Z,98866.73
2018-12-13T16:23:06.391Z,98882.55
2018-12-13T16:25:14.002Z,98887.25
2018-12-13T16:27:21.415Z,98885.36
2018-12-13T16:29:28.540Z,98877.80
2018-12-13T16:31:35.497Z,98874.85
2018-12-13T16:33:42.377Z,98873.50
2018-12-13T16:35:49.990Z,98882.34
2018-12-13T16:37:57.018Z,98874.13
2018-12-13T16:40:10.019Z,98877.45
2018-12-13T16:42:12.730Z,98878.62
2018-12-13T16:44:19.623Z,98875.84
2018-12-13T16:46:26.445Z,98879.84
2018-12-13T16:48:33.082Z,98872.90
2018-12-13T16:50:39.750Z,98862.75
2018-12-13T16:52:46.802Z,98861.69
2018-12-13T16:54:53.402Z,98852.56
2018-12-13T16:57:00.365Z,98849.42
2018-12-13T16:59:07.693Z,98837.98
2018-12-13T17:01:14.737Z,98835.17
2018-12-13T17:03:56.986Z,98826.61
2018-12-13T17:06:03.891Z,98820.88
2018-12-13T17:08:10.797Z,98818.77
2018-12-13T17:10:17.463Z,98816.35
2018-12-13T17:12:24.470Z,98817.18
2018-12-13T17:14:31.498Z,98821.08
2018-12-13T17:16:38.676Z,98822.36
2018-12-13T17:18:45.581Z,98825.30
2018-12-13T17:20:52.814Z,98825.66
2018-12-13T17:22:59.530Z,98831.07
2018-12-13T17:25:06.392Z,98833.71
2018-12-13T17:27:13.261Z,98831.41
2018-12-13T17:29:19.845Z,98834.27
2018-12-13T17:31:26.621Z,98832.09
2018-12-13T17:33:33.511Z,98836.23
2018-12-13T17:35:40.301Z,98829.11
2018-12-13T17:37:47.157Z,98838.59
2018-12-13T17:39:54.257Z,98836.31
2018-12-13T17:42:01.312Z,98835.02
2018-12-13T17:44:08.084Z,98832.98
2018-12-13T17:46:14.967Z,98829.44
2018-12-13T17:48:22.011Z,98816.52
2018-12-13T17:50:29.032Z,98816.20
2018-12-13T17:52:35.778Z,98815.55
2018-12-13T17:54:42.674Z,98811.63
2018-12-13T17:56:49.683Z,98816.45
2018-12-13T17:58:56.808Z,98810.09
2018-12-13T18:01:03.686Z,98808.33
2018-12-13T18:03:10.607Z,98802.15
2018-12-13T18:05:17.486Z,98802.51
2018-12-13T18:07:25.745Z,98803.21
2018-12-13T18:09:33.569Z,98808.46
2018-12-13T18:11:40.878Z,98809.29
2018-12-13T18:13:47.505Z,98803.16
2018-12-13T18:15:55.547Z,98811.28
2018-12-13T18:18:02.297Z,98821.00
2018-12-13T18:20:10.091Z,98818.13
2018-12-13T18:22:17.097Z,98819.36
2018-12-13T18:24:23.903Z,98827.80
2018-12-13T18:26:31.074Z,98833.28
2018-12-13T18:28:37.811Z,98848.95
2018-12-13T18:30:44.452Z,98866.88
2018-12-13T18:32:51.447Z,98884.21
2018-12-13T18:34:59.135Z,98890.16
2018-12-13T18:37:06.086Z,98906.80
2018-12-13T18:39:12.896Z,98906.40
2018-12-13T18:41:19.713Z,98911.59
2018-12-13T18:43:26.567Z,98918.64
2018-12-13T18:45:37.457Z,98905.83
2018-12-13T18:47:44.270Z,98892.11
2018-12-13T18:49:51.098Z,98887.08
2018-12-13T18:51:58.122Z,98879.91
2018-12-13T18:54:04.620Z,98882.09
2018-12-13T18:56:11.841Z,98880.20
2018-12-13T18:58:18.934Z,98888.34
2018-12-13T19:00:25.749Z,98891.35
2018-12-13T19:02:32.591Z,98898.45
2018-12-13T19:04:39.541Z,98903.42
2018-12-13T19:06:46.596Z,98900.63
2018-12-13T19:08:53.388Z,98902.36
2018-12-13T19:11:00.372Z,98899.58
2018-12-13T19:13:07.436Z,98900.00
2018-12-13T19:15:14.601Z,98901.59
2018-12-13T19:17:21.718Z,98903.11
2018-12-13T19:19:28.361Z,98896.70
2018-12-13T19:21:35.686Z,98894.74
2018-12-13T19:23:42.749Z,98883.90
2018-12-13T19:25:49.696Z,98879.00
2018-12-13T19:27:56.802Z,98868.23
2018-12-13T19:30:03.878Z,98860.88
2018-12-13T19:32:10.627Z,98854.08
2018-12-13T19:34:16.906Z,98852.39
2018-12-13T19:36:24.002Z,98857.12
2018-12-13T19:38:30.806Z,98862.07
2018-12-13T19:40:37.629Z,98866.78
2018-12-13T19:42:44.516Z,98875.74
2018-12-13T19:44:51.510Z,98868.07
2018-12-13T19:46:58.075Z,98864.47
2018-12-13T19:49:05.321Z,98859.16
2018-12-13T19:51:12.637Z,98852.69
2018-12-13T19:53:19.825Z,98851.65
2018-12-13T19:55:26.585Z,98850.85
2018-12-13T19:57:33.529Z,98848.67
2018-12-13T19:59:40.393Z,98847.26
2018-12-13T20:01:47.309Z,98845.38
2018-12-13T20:03:54.406Z,98845.48
2018-12-13T20:06:01.821Z,98851.14
2018-12-13T20:08:08.493Z,98846.61
2018-12-13T20:10:15.466Z,98847.77
2018-12-13T20:12:23.115Z,98852.80
2018-12-13T20:14:29.809Z,98847.53
2018-12-13T20:16:36.414Z,98837.66
2018-12-13T20:18:43.189Z,98841.95
2018-12-13T20:20:49.988Z,98844.89
2018-12-13T20:22:56.638Z,98853.25
2018-12-13T20:25:03.561Z,98851.59
2018-12-13T20:27:10.589Z,98849.41
2018-12-13T20:29:18.158Z,98845.95
2018-12-13T20:31:25.350Z,98848.95
2018-12-13T20:33:32.135Z,98840.00
2018-12-13T20:35:39.174Z,98847.30
2018-12-13T20:37:45.731Z,98839.77
2018-12-13T20:39:52.987Z,98853.78
2018-12-13T20:41:59.835Z,98853.11
2018-12-13T20:44:06.720Z,98856.39
2018-12-13T20:46:13.745Z,98841.30
2018-12-13T20:48:21.650Z,98843.19
2018-12-13T20:50:29.056Z,98852.30
2018-12-13T20:52:36.697Z,98849.05
2018-12-13T20:54:43.781Z,98848.76
2018-12-13T20:56:51.237Z,98851.95
2018-12-13T20:58:58.634Z,98851.51
2018-12-13T21:01:07.075Z,98845.55
2018-12-13T21:03:14.150Z,98849.56
2018-12-13T21:05:21.342Z,98849.27
2018-12-13T21:07:32.983Z,98841.50
2018-12-13T21:09:39.722Z,98852.33
2018-12-13T21:11:46.626Z,98865.98
2018-12-13T21:13:53.551Z,98855.14
2018-12-13T21:16:00.395Z,98862.28
2018-12-13T21:18:07.458Z,98861.92
2018-12-13T21:20:14.459Z,98857.39
2018-12-13T21:22:21.397Z,98859.73
2018-12-13T21:24:28.582Z,98863.41
2018-12-13T21:26:35.578Z,98862.68
2018-12-13T21:28:42.717Z,98862.81
2018-12-13T21:30:49.176Z,98857.61
2018-12-13T21:32:55.625Z,98863.86
2018-12-13T21:35:01.968Z,98878.83
2018-12-13T21:37:08.573Z,98889.45
2018-12-13T21:39:16.153Z,98894.55
2018-12-13T21:41:23.048Z,98902.33
2018-12-13T21:43:29.994Z,98899.66
2018-12-13T21:45:37.084Z,98909.83
2018-12-13T21:47:44.289Z,98899.23
2018-12-13T21:49:51.790Z,98904.45
2018-12-13T21:51:58.765Z,98903.05
2018-12-13T21:54:06.479Z,98903.47
2018-12-13T21:56:13.380Z,98852.16
2018-12-13T21:58:20.361Z,98899.34
2018-12-13T22:00:27.447Z,98892.79
2018-12-13T22:02:35.030Z,98902.34
2018-12-13T22:04:42.017Z,98895.41
2018-12-13T22:06:48.897Z,98897.00
2018-12-13T22:08:55.862Z,98889.92
2018-12-13T22:11:02.788Z,98893.62
2018-12-13T22:13:09.678Z,98895.56
2018-12-13T22:15:16.342Z,98895.56
2018-12-13T22:17:22.849Z,98888.49
2018-12-13T22:19:29.220Z,98884.95
2018-12-13T22:21:36.192Z,98893.09
2018-12-13T22:23:42.603Z,98890.91
2018-12-13T22:25:49.305Z,98883.95
2018-12-13T22:27:55.649Z,98889.25
2018-12-13T22:30:02.406Z,98897.38
2018-12-13T22:32:09.338Z,98899.08
2018-12-13T22:34:16.449Z,98897.34
2018-12-13T22:36:23.213Z,98896.52
2018-12-13T22:38:29.923Z,98893.58
2018-12-13T22:40:36.814Z,98891.53
2018-12-13T22:42:43.585Z,98885.91
2018-12-13T22:44:51.030Z,98889.66
2018-12-13T22:46:58.010Z,98885.00
2018-12-13T22:49:05.272Z,98893.36
2018-12-13T22:51:12.378Z,98888.84
2018-12-13T22:53:19.339Z,98893.20
2018-12-13T22:55:27.681Z,98891.48
2018-12-13T22:57:34.858Z,98888.64
2018-12-13T22:59:41.981Z,98883.72
2018-12-13T23:01:48.982Z,98881.46
2018-12-13T23:03:56.767Z,98888.47
2018-12-13T23:06:03.720Z,98878.61
2018-12-13T23:08:10.584Z,98879.20
2018-12-13T23:10:17.874Z,98893.11
2018-12-13T23:12:24.756Z,98888.22
2018-12-13T23:14:31.993Z,98886.27
2018-12-13T23:16:38.987Z,98890.86
2018-12-13T23:18:46.851Z,98892.97
2018-12-13T23:20:55.365Z,98899.13
2018-12-13T23:23:02.410Z,98905.33
2018-12-13T23:25:09.481Z,98904.92
2018-12-13T23:27:16.735Z,98906.27
2018-12-13T23:29:23.791Z,98906.10
2018-12-13T23:31:31.564Z,98909.01
2018-12-13T23:33:38.970Z,98918.67
2018-12-13T23:35:45.859Z,98914.97
2018-12-13T23:37:52.350Z,98914.53
2018-12-13T23:39:58.818Z,98919.33
2018-12-13T23:42:05.262Z,98916.86
2018-12-13T23:44:12.630Z,98920.69
2018-12-13T23:46:19.275Z,98921.02
2018-12-13T23:48:25.660Z,98925.16
2018-12-13T23:50:32.181Z,98930.95
2018-12-13T23:52:39.130Z,98930.12
2018-12-13T23:54:46.173Z,98928.63
2018-12-13T23:56:53.245Z,98923.99
2018-12-13T23:59:01.068Z,98924.72
